Time;durP1;ratioP1;P1;durP2;ratioP2;P2;SDS_P1;SDS_P2;PMS_P1;PMS_P2;Temp;Humidity;BMP_temperature;BMP_pressure;BME280_temperature;BME280_humidity;BME280_pressure;Samples;Min_cycle;Max_cycle;Signal;HPM_P1;HPM_P2
2022/01/20 00:00:40;;;;;;;4.00;3.60;;;19.10;39.20;;;;;;5019326;28;20464;-72
2022/01/20 00:03:13;;;;;;;3.57;3.27;;;19.10;39.20;;;;;;5020463;28;20441;-72
2022/01/20 00:07:04;;;;;;;3.93;3.63;;;19.10;39.20;;;;;;5018692;28;20464;-72
2022/01/20 00:27:54;;;;;;;3.67;3.37;;;19.10;39.50;;;;;;5033349;28;20509;-72
2022/01/20 00:30:37;;;;;;;3.47;3.23;;;19.10;39.60;;;;;;5037528;28;20430;-72
2022/01/20 00:33:18;;;;;;;3.93;3.50;;;19.10;39.60;;;;;;5035503;28;20468;-72
2022/01/20 00:38:15;;;;;;;4.73;3.60;;;19.10;39.70;;;;;;5042499;28;20491;-72
2022/01/20 00:40:41;;;;;;;3.47;3.17;;;19.10;39.70;;;;;;5040545;28;20459;-72
2022/01/20 00:43:07;;;;;;;3.83;3.43;;;19.10;39.80;;;;;;5042270;28;20444;-72
2022/01/20 00:45:33;;;;;;;4.27;3.30;;;19.10;39.80;;;;;;5040471;28;20246;-72
2022/01/20 00:47:58;;;;;;;3.40;3.10;;;19.00;39.80;;;;;;5041637;28;20746;-72
2022/01/20 00:50:24;;;;;;;5.80;3.20;;;19.10;39.80;;;;;;5049111;28;20223;-71
2022/01/20 00:52:51;;;;;;;3.63;3.33;;;19.10;39.90;;;;;;5043671;28;20246;-72
2022/01/20 00:55:17;;;;;;;3.13;2.93;;;19.00;39.80;;;;;;5044770;28;20454;-71
2022/01/20 00:57:42;;;;;;;3.50;3.30;;;19.10;39.90;;;;;;5043043;28;21202;-72
2022/01/20 01:00:10;;;;;;;3.37;2.90;;;19.00;39.90;;;;;;5037597;28;20223;-72
2022/01/20 01:02:36;;;;;;;4.20;3.43;;;19.10;40.00;;;;;;5041070;28;20901;-72
2022/01/20 01:05:03;;;;;;;3.33;2.93;;;19.10;40.00;;;;;;5040378;28;20522;-72
2022/01/20 01:07:48;;;;;;;3.37;2.87;;;19.00;39.90;;;;;;5045514;28;20230;-72
2022/01/20 01:10:18;;;;;;;3.27;2.87;;;19.10;40.00;;;;;;5047326;28;20459;-72
2022/01/20 01:12:57;;;;;;;2.97;2.70;;;19.00;39.90;;;;;;5041106;28;20422;-72
2022/01/20 01:15:29;;;;;;;3.23;2.93;;;19.00;40.00;;;;;;5039080;28;20498;-72
2022/01/20 01:23:33;;;;;;;3.07;2.80;;;19.00;40.10;;;;;;5041347;28;20818;-72
2022/01/20 01:25:59;;;;;;;3.33;3.03;;;19.00;40.10;;;;;;5041360;28;20440;-72
2022/01/20 01:28:29;;;;;;;3.23;2.93;;;19.00;40.10;;;;;;5042082;28;20471;-72
2022/01/20 01:33:51;;;;;;;3.27;2.97;;;19.00;40.10;;;;;;5044873;28;20512;-71
2022/01/20 01:36:20;;;;;;;2.77;2.57;;;19.00;40.20;;;;;;5041397;28;20446;-71
2022/01/20 01:38:47;;;;;;;3.97;3.67;;;19.00;40.20;;;;;;5044461;28;20473;-72
2022/01/20 01:41:16;;;;;;;4.30;2.77;;;19.00;40.20;;;;;;5041214;28;20475;-71
2022/01/20 01:43:46;;;;;;;2.93;2.63;;;19.00;40.20;;;;;;5040447;28;20514;-71
2022/01/20 01:46:14;;;;;;;3.33;2.53;;;19.00;40.20;;;;;;5041977;28;20451;-71
2022/01/20 01:48:41;;;;;;;3.10;2.90;;;19.00;40.20;;;;;;5041452;28;20456;-73
2022/01/20 01:51:08;;;;;;;2.93;2.63;;;19.00;40.20;;;;;;5040532;28;20448;-74
2022/01/20 01:53:34;;;;;;;2.83;2.30;;;19.00;40.20;;;;;;5039384;28;20454;-73
2022/01/20 01:56:01;;;;;;;4.83;3.23;;;19.00;40.20;;;;;;5040864;28;20419;-73
2022/01/20 01:58:27;;;;;;;3.50;2.40;;;19.00;40.30;;;;;;5043355;28;20489;-72
2022/01/20 02:00:54;;;;;;;3.07;2.77;;;19.00;40.20;;;;;;5039310;28;20452;-72
2022/01/20 02:03:20;;;;;;;2.80;2.50;;;19.00;40.20;;;;;;5047730;28;20230;-72
2022/01/20 02:06:05;;;;;;;2.50;2.30;;;19.00;40.20;;;;;;5041949;28;20440;-72
2022/01/20 02:19:48;;;;;;;2.90;2.70;;;19.00;40.30;;;;;;5042604;28;20474;-72
2022/01/20 02:22:13;;;;;;;2.70;2.50;;;19.00;40.30;;;;;;5040597;28;20536;-72
2022/01/20 02:24:39;;;;;;;3.53;3.17;;;19.00;40.30;;;;;;5040712;28;20540;-72
2022/01/20 02:27:05;;;;;;;2.50;2.30;;;19.00;40.30;;;;;;5039639;28;20219;-72
2022/01/20 02:29:30;;;;;;;3.50;3.30;;;19.00;40.30;;;;;;5042770;28;20239;-72
2022/01/20 02:31:59;;;;;;;2.33;2.13;;;19.00;40.30;;;;;;5038210;28;20222;-72
2022/01/20 02:34:29;;;;;;;2.90;2.40;;;19.00;40.30;;;;;;5043096;28;20218;-72
2022/01/20 02:36:56;;;;;;;2.80;2.43;;;19.00;40.30;;;;;;5042345;28;20426;-72
2022/01/20 02:39:59;;;;;;;2.90;2.23;;;19.00;40.30;;;;;;5041293;28;20474;-72
2022/01/20 02:45:05;;;;;;;2.70;2.50;;;19.00;40.30;;;;;;5023912;28;20452;-72
2022/01/20 02:47:34;;;;;;;2.87;2.67;;;19.00;40.30;;;;;;5041154;28;20478;-72
2022/01/20 02:50:00;;;;;;;2.27;2.07;;;19.00;40.50;;;;;;5034580;28;20931;-72
2022/01/20 02:52:27;;;;;;;3.17;2.57;;;19.00;40.40;;;;;;5039841;28;20839;-72
2022/01/20 02:54:55;;;;;;;2.63;2.43;;;19.00;40.40;;;;;;5038598;28;20471;-72
2022/01/20 02:57:22;;;;;;;2.27;2.10;;;19.00;40.40;;;;;;5072315;28;20483;-72
2022/01/20 02:59:47;;;;;;;2.60;2.40;;;19.00;40.40;;;;;;5039254;28;20530;-72
2022/01/20 03:02:13;;;;;;;2.27;2.10;;;19.00;40.40;;;;;;5033936;28;21184;-72
2022/01/20 03:04:40;;;;;;;5.40;2.00;;;19.00;40.30;;;;;;5041366;28;20231;-72
2022/01/20 03:07:06;;;;;;;3.00;2.60;;;19.00;40.40;;;;;;5040911;28;20580;-72
2022/01/20 03:09:32;;;;;;;3.03;2.40;;;19.00;40.40;;;;;;5042616;28;20850;-73
2022/01/20 03:11:58;;;;;;;3.50;2.13;;;19.00;40.30;;;;;;5037459;28;20565;-72
2022/01/20 03:14:24;;;;;;;2.30;2.10;;;19.00;40.30;;;;;;5037361;28;20455;-72
2022/01/20 03:16:50;;;;;;;2.50;2.30;;;19.00;40.40;;;;;;5037685;28;20976;-72
2022/01/20 03:19:16;;;;;;;4.43;2.47;;;19.00;40.30;;;;;;5037281;28;20238;-72
2022/01/20 03:21:43;;;;;;;2.63;2.43;;;19.00;40.40;;;;;;5039892;28;20601;-73
2022/01/20 03:24:10;;;;;;;2.10;1.90;;;19.00;40.30;;;;;;5043481;28;20643;-73
2022/01/20 03:26:36;;;;;;;2.27;1.87;;;19.00;40.40;;;;;;5039016;28;20503;-73
2022/01/20 03:29:03;;;;;;;4.77;1.80;;;19.00;40.30;;;;;;5035931;28;20613;-73
2022/01/20 03:31:30;;;;;;;2.90;2.30;;;19.00;40.30;;;;;;5040789;28;20459;-73
2022/01/20 03:33:56;;;;;;;3.37;2.90;;;19.00;40.30;;;;;;5037757;28;20451;-72
2022/01/20 03:36:21;;;;;;;2.27;2.07;;;19.00;40.30;;;;;;5040315;28;20448;-73
2022/01/20 03:38:47;;;;;;;3.17;2.87;;;19.00;40.40;;;;;;5039730;28;20234;-73
2022/01/20 03:41:13;;;;;;;1.50;1.40;;;19.00;40.30;;;;;;5042603;28;20663;-73
2022/01/20 03:43:39;;;;;;;2.10;2.00;;;19.00;40.30;;;;;;5037374;28;20591;-73
2022/01/20 03:46:06;;;;;;;2.30;2.10;;;19.00;40.30;;;;;;5041013;28;20460;-73
2022/01/20 03:48:38;;;;;;;1.90;1.80;;;19.00;40.40;;;;;;5035227;28;20222;-73
2022/01/20 03:51:03;;;;;;;2.30;1.77;;;19.00;40.40;;;;;;5039262;28;20443;-73
2022/01/20 03:53:32;;;;;;;1.70;1.60;;;19.00;40.40;;;;;;5042461;28;20466;-73
2022/01/20 03:55:59;;;;;;;1.80;1.70;;;19.00;40.30;;;;;;5032554;28;20472;-72
2022/01/20 03:58:25;;;;;;;2.30;2.03;;;19.00;40.30;;;;;;5042430;28;20455;-73
2022/01/20 04:00:51;;;;;;;2.50;2.10;;;19.00;40.30;;;;;;5069662;28;20832;-72
2022/01/20 04:03:17;;;;;;;1.90;1.80;;;19.00;40.40;;;;;;5046738;28;20487;-71
2022/01/20 04:05:56;;;;;;;3.17;2.23;;;19.00;40.40;;;;;;5039782;28;20251;-72
2022/01/20 04:08:23;;;;;;;1.83;1.73;;;19.00;40.30;;;;;;5040300;28;20457;-72
2022/01/20 04:10:49;;;;;;;1.80;1.70;;;19.00;40.30;;;;;;5037116;28;21181;-72
2022/01/20 04:13:16;;;;;;;2.50;2.07;;;18.90;40.20;;;;;;5044204;28;20944;-72
2022/01/20 04:15:42;;;;;;;2.00;1.80;;;19.00;40.30;;;;;;5044222;28;20229;-72
2022/01/20 04:18:11;;;;;;;2.47;2.27;;;19.00;40.30;;;;;;5041860;28;20539;-72
2022/01/20 04:20:36;;;;;;;1.83;1.70;;;18.90;40.20;;;;;;5047096;28;20314;-73
2022/01/20 04:23:02;;;;;;;1.87;1.77;;;19.00;40.30;;;;;;5041194;28;20514;-72
2022/01/20 04:25:28;;;;;;;2.27;2.07;;;19.00;40.30;;;;;;5044958;28;20227;-73
2022/01/20 04:27:54;;;;;;;2.07;1.97;;;18.90;40.20;;;;;;5041727;28;20246;-73
2022/01/20 04:30:19;;;;;;;2.10;2.00;;;19.00;40.30;;;;;;5041770;28;20222;-73
2022/01/20 04:32:45;;;;;;;2.50;2.40;;;19.00;40.30;;;;;;5041266;28;20229;-73
2022/01/20 04:35:11;;;;;;;3.80;1.83;;;19.00;40.30;;;;;;5075127;28;20218;-74
2022/01/20 04:37:36;;;;;;;2.77;2.03;;;19.00;40.40;;;;;;5040151;28;20626;-74
2022/01/20 04:40:03;;;;;;;1.80;1.70;;;18.90;40.30;;;;;;5044861;28;20273;-74
2022/01/20 04:42:32;;;;;;;3.67;2.03;;;19.00;40.40;;;;;;5039376;28;20223;-74
2022/01/20 04:45:06;;;;;;;1.73;1.63;;;18.90;40.30;;;;;;5046363;28;20511;-74
2022/01/20 04:47:41;;;;;;;3.10;1.60;;;19.00;40.40;;;;;;5037650;28;20451;-74
2022/01/20 04:58:20;;;;;;;1.80;1.70;;;18.90;40.30;;;;;;5025900;28;20486;-80
2022/01/20 05:00:45;;;;;;;1.97;1.60;;;18.90;40.30;;;;;;5020720;28;20969;-73
2022/01/20 05:03:11;;;;;;;1.80;1.70;;;18.90;40.20;;;;;;5022720;28;20251;-73
2022/01/20 05:05:37;;;;;;;1.60;1.40;;;18.90;40.30;;;;;;5024600;28;20219;-76
2022/01/20 05:08:02;;;;;;;2.20;1.67;;;18.90;40.30;;;;;;5023104;28;20280;-75
2022/01/20 05:10:33;;;;;;;3.67;1.50;;;18.90;40.30;;;;;;5019068;28;20783;-74
2022/01/20 05:15:28;;;;;;;1.87;1.77;;;18.90;40.30;;;;;;5020994;28;20412;-73
2022/01/20 05:17:54;;;;;;;4.40;1.97;;;18.90;40.40;;;;;;5033822;28;20461;-73
2022/01/20 05:20:20;;;;;;;4.67;1.90;;;18.90;40.30;;;;;;5021064;28;20589;-73
2022/01/20 05:22:46;;;;;;;1.90;1.70;;;18.90;40.30;;;;;;5025790;28;20419;-73
2022/01/20 05:25:11;;;;;;;1.90;1.80;;;18.90;40.30;;;;;;5019224;28;20265;-73
2022/01/20 05:27:37;;;;;;;1.70;1.60;;;19.00;40.50;;;;;;5017724;28;20228;-73
2022/01/20 05:30:03;;;;;;;2.13;1.73;;;19.00;40.40;;;;;;5020872;28;20219;-73
2022/01/20 05:32:29;;;;;;;2.07;1.80;;;19.00;40.40;;;;;;5023006;28;20232;-74
2022/01/20 05:34:54;;;;;;;2.40;1.70;;;19.00;40.30;;;;;;5025736;28;20960;-75
2022/01/20 05:37:20;;;;;;;1.63;1.53;;;19.00;40.40;;;;;;5020356;28;20231;-74
2022/01/20 05:39:46;;;;;;;2.10;1.70;;;18.90;40.20;;;;;;5018971;28;20614;-75
2022/01/20 05:42:11;;;;;;;3.50;1.50;;;19.00;40.30;;;;;;5019399;28;20324;-78
2022/01/20 05:44:37;;;;;;;1.50;1.40;;;19.00;40.30;;;;;;5021948;28;20698;-77
2022/01/20 05:47:09;;;;;;;1.70;1.60;;;19.00;40.40;;;;;;5021608;28;20248;-76
2022/01/20 05:49:34;;;;;;;1.73;1.63;;;19.00;40.40;;;;;;5039718;28;20222;-81
2022/01/20 05:52:00;;;;;;;1.90;1.80;;;19.00;40.30;;;;;;5040329;28;20449;-81
2022/01/20 05:54:26;;;;;;;2.07;1.50;;;19.00;40.30;;;;;;5045774;28;20225;-80
2022/01/20 05:56:52;;;;;;;4.27;1.53;;;19.00;40.30;;;;;;5040959;28;20227;-79
2022/01/20 05:59:18;;;;;;;1.60;1.50;;;19.00;40.30;;;;;;5041392;28;20651;-78
2022/01/20 06:01:46;;;;;;;1.60;1.50;;;19.00;40.30;;;;;;5039511;28;20223;-78
2022/01/20 06:04:12;;;;;;;1.50;1.40;;;19.10;40.30;;;;;;5038281;28;20228;-76
2022/01/20 06:06:38;;;;;;;1.83;1.60;;;19.10;40.20;;;;;;5043463;28;20806;-80
2022/01/20 06:09:08;;;;;;;1.67;1.50;;;19.10;40.90;;;;;;5046151;28;20223;-78
2022/01/20 06:11:34;;;;;;;2.40;1.80;;;19.10;40.10;;;;;;5043800;28;20678;-79
2022/01/20 06:14:01;;;;;;;1.80;1.70;;;19.20;40.10;;;;;;5039407;28;20419;-79
2022/01/20 06:16:26;;;;;;;3.10;1.57;;;19.20;40.10;;;;;;5043615;28;20975;-75
2022/01/20 06:18:52;;;;;;;3.10;1.70;;;19.20;40.10;;;;;;5040941;28;20555;-80
2022/01/20 06:21:18;;;;;;;1.70;1.60;;;19.20;40.10;;;;;;5038464;28;20238;-75
2022/01/20 06:23:43;;;;;;;1.63;1.50;;;19.20;40.00;;;;;;5038392;28;20238;-73
2022/01/20 06:26:09;;;;;;;2.10;1.50;;;19.20;40.10;;;;;;5040530;28;20218;-78
2022/01/20 06:28:37;;;;;;;2.10;1.90;;;19.20;40.10;;;;;;5044973;28;20250;-71
2022/01/20 06:31:04;;;;;;;2.20;1.90;;;19.20;40.10;;;;;;5036740;28;20239;-69
2022/01/20 06:33:29;;;;;;;2.50;2.23;;;19.20;40.10;;;;;;5039781;28;20882;-73
2022/01/20 06:35:56;;;;;;;2.73;1.80;;;19.20;40.10;;;;;;5040591;28;20551;-75
2022/01/20 06:38:22;;;;;;;2.10;1.90;;;19.20;40.10;;;;;;5044027;28;20258;-75
2022/01/20 06:40:48;;;;;;;1.90;1.70;;;19.20;40.20;;;;;;5042635;28;20470;-75
2022/01/20 06:43:14;;;;;;;1.80;1.70;;;19.20;40.20;;;;;;5042647;28;20957;-78
2022/01/20 06:45:39;;;;;;;2.00;1.80;;;19.20;40.20;;;;;;5074102;28;20444;-78
2022/01/20 06:48:05;;;;;;;1.80;1.70;;;19.20;40.20;;;;;;5043384;28;20304;-78
2022/01/20 06:50:31;;;;;;;2.00;1.90;;;19.20;40.20;;;;;;5042267;28;20754;-78
2022/01/20 06:52:56;;;;;;;2.07;1.80;;;19.20;40.20;;;;;;5041407;28;20628;-77
2022/01/20 06:55:22;;;;;;;2.00;1.90;;;19.20;40.20;;;;;;5042778;28;20580;-78
2022/01/20 06:57:48;;;;;;;1.90;1.67;;;19.20;40.20;;;;;;5038932;28;20223;-77
2022/01/20 07:00:18;;;;;;;2.03;1.80;;;19.20;40.20;;;;;;5038970;28;20230;-77
2022/01/20 07:02:44;;;;;;;2.03;1.50;;;19.20;40.20;;;;;;5036621;28;20423;-77
2022/01/20 07:05:12;;;;;;;1.70;1.60;;;19.20;40.20;;;;;;5039519;28;20457;-77
2022/01/20 07:07:37;;;;;;;2.00;1.83;;;19.20;40.20;;;;;;5035367;28;20483;-75
2022/01/20 07:10:04;;;;;;;1.60;1.50;;;19.20;40.10;;;;;;5043436;28;20854;-74
2022/01/20 07:12:30;;;;;;;2.23;1.80;;;19.20;40.20;;;;;;5035274;28;20226;-77
2022/01/20 07:14:55;;;;;;;1.60;1.50;;;19.20;40.20;;;;;;5041555;28;20791;-78
2022/01/20 07:17:21;;;;;;;2.20;2.10;;;19.20;40.20;;;;;;5038896;28;20276;-77
2022/01/20 07:19:47;;;;;;;1.70;1.50;;;19.20;41.00;;;;;;5036597;28;20250;-75
2022/01/20 07:22:12;;;;;;;1.70;1.60;;;19.10;40.20;;;;;;5039591;28;20223;-76
2022/01/20 07:24:38;;;;;;;1.90;1.80;;;19.20;40.20;;;;;;5042104;28;20235;-79
2022/01/20 07:27:04;;;;;;;2.23;1.67;;;19.20;40.20;;;;;;5043969;28;20229;-78
2022/01/20 07:29:31;;;;;;;1.87;1.67;;;19.20;40.20;;;;;;5037829;28;20261;-78
2022/01/20 07:31:59;;;;;;;2.00;1.80;;;19.10;40.10;;;;;;5041890;28;20501;-79
2022/01/20 07:34:24;;;;;;;2.00;1.60;;;19.20;40.20;;;;;;5039208;28;20453;-78
2022/01/20 07:36:50;;;;;;;5.07;1.73;;;19.20;40.20;;;;;;5039600;28;20468;-78
2022/01/20 07:39:16;;;;;;;1.60;1.50;;;19.20;40.20;;;;;;5035963;28;20231;-78
2022/01/20 07:41:42;;;;;;;2.43;1.70;;;19.20;40.20;;;;;;5039151;28;20297;-78
2022/01/20 07:44:09;;;;;;;1.77;1.67;;;19.20;40.20;;;;;;5039757;28;20679;-77
2022/01/20 07:46:35;;;;;;;1.50;1.40;;;19.20;40.20;;;;;;5041968;28;20288;-77
2022/01/20 07:49:00;;;;;;;1.97;1.73;;;19.20;40.20;;;;;;5042511;28;21009;-77
2022/01/20 07:51:26;;;;;;;2.03;1.50;;;19.20;40.20;;;;;;5043042;28;20222;-78
2022/01/20 07:53:51;;;;;;;1.83;1.73;;;19.20;40.30;;;;;;5045273;28;20231;-78
2022/01/20 07:56:17;;;;;;;1.70;1.60;;;19.10;40.20;;;;;;5044283;28;20221;-78
2022/01/20 07:58:43;;;;;;;2.30;1.90;;;19.20;40.20;;;;;;5043323;28;20321;-77
2022/01/20 08:01:09;;;;;;;2.23;1.57;;;19.10;40.10;;;;;;5045403;28;20218;-77
2022/01/20 08:03:35;;;;;;;2.20;1.53;;;19.10;40.20;;;;;;5047878;28;20979;-77
2022/01/20 08:06:00;;;;;;;1.63;1.50;;;19.10;40.20;;;;;;5074558;28;20455;-77
2022/01/20 08:08:26;;;;;;;2.00;1.60;;;19.20;40.20;;;;;;5048978;28;20225;-77
2022/01/20 08:10:51;;;;;;;3.37;1.70;;;19.20;40.20;;;;;;5044495;28;20310;-77
2022/01/20 08:13:17;;;;;;;1.80;1.57;;;19.10;40.20;;;;;;5047737;28;20581;-77
2022/01/20 08:15:44;;;;;;;1.40;1.20;;;19.10;40.20;;;;;;5043845;28;20234;-76
2022/01/20 08:18:10;;;;;;;1.97;1.50;;;19.20;40.20;;;;;;5038523;28;20285;-76
2022/01/20 08:20:36;;;;;;;1.73;1.50;;;19.20;40.20;;;;;;5043738;28;20464;-76
2022/01/20 08:23:02;;;;;;;3.00;1.43;;;19.20;40.30;;;;;;5042009;28;20455;-76
2022/01/20 08:25:28;;;;;;;1.63;1.53;;;19.20;40.30;;;;;;5042622;28;20226;-76
2022/01/20 08:27:54;;;;;;;1.63;1.23;;;19.10;40.20;;;;;;5043748;28;20423;-76
2022/01/20 08:30:21;;;;;;;1.37;1.20;;;19.10;40.20;;;;;;5076086;28;20254;-76
2022/01/20 08:32:47;;;;;;;1.63;1.30;;;19.20;40.20;;;;;;5046881;28;20581;-76
2022/01/20 08:35:14;;;;;;;1.60;1.40;;;19.10;40.20;;;;;;5046086;28;20447;-76
2022/01/20 08:37:43;;;;;;;1.70;1.50;;;19.10;40.20;;;;;;5046702;28;20458;-75
2022/01/20 08:40:14;;;;;;;1.63;1.20;;;19.20;40.20;;;;;;5035646;28;20464;-75
2022/01/20 08:42:45;;;;;;;1.80;1.40;;;19.20;40.20;;;;;;5075811;28;20989;-76
2022/01/20 08:45:13;;;;;;;1.60;1.50;;;19.20;40.30;;;;;;5043940;28;20425;-75
2022/01/20 08:47:39;;;;;;;1.60;1.50;;;19.20;40.30;;;;;;5044168;28;20424;-76
2022/01/20 08:50:07;;;;;;;1.70;1.40;;;19.10;40.20;;;;;;5044496;28;20454;-75
2022/01/20 08:52:33;;;;;;;1.40;1.30;;;19.10;40.20;;;;;;5043351;28;20501;-79
2022/01/20 08:54:59;;;;;;;1.30;1.20;;;19.10;40.20;;;;;;5039949;28;20527;-79
2022/01/20 08:57:26;;;;;;;2.00;1.57;;;19.10;40.20;;;;;;5074846;28;20582;-78
2022/01/20 08:59:52;;;;;;;1.70;1.40;;;19.10;40.20;;;;;;5041163;28;20882;-79
2022/01/20 09:02:18;;;;;;;1.87;1.57;;;19.10;40.20;;;;;;5046171;28;20463;-77
2022/01/20 09:04:44;;;;;;;1.33;1.20;;;19.10;40.20;;;;;;5040137;28;20889;-77
2022/01/20 09:07:10;;;;;;;1.77;1.67;;;19.20;40.30;;;;;;5042759;28;20535;-77
2022/01/20 09:09:42;;;;;;;1.90;1.60;;;19.20;40.20;;;;;;5043941;28;20710;-77
2022/01/20 09:17:30;;;;;;;1.50;1.20;;;19.10;40.10;;;;;;5037521;28;20497;-77
2022/01/20 09:19:56;;;;;;;1.40;1.30;;;19.20;40.20;;;;;;5043691;28;20435;-79
2022/01/20 09:22:23;;;;;;;1.87;1.33;;;19.20;40.30;;;;;;5043918;28;21085;-79
2022/01/20 09:24:48;;;;;;;1.27;1.17;;;19.10;40.20;;;;;;5041225;28;20535;-78
2022/01/20 09:27:14;;;;;;;1.50;1.17;;;19.10;40.20;;;;;;5044314;28;21015;-77
2022/01/20 09:29:41;;;;;;;2.13;1.10;;;19.20;40.20;;;;;;5041790;28;20243;-76
2022/01/20 09:32:09;;;;;;;1.30;1.20;;;19.20;40.10;;;;;;5043739;28;20512;-75
2022/01/20 09:34:35;;;;;;;1.87;1.30;;;19.20;40.20;;;;;;5043145;28;20543;-73
2022/01/20 09:37:01;;;;;;;1.30;1.20;;;19.10;40.10;;;;;;5071482;28;20524;-78
2022/01/20 09:39:27;;;;;;;1.40;1.27;;;19.20;40.20;;;;;;5045359;28;20243;-77
2022/01/20 09:41:53;;;;;;;1.30;1.20;;;19.20;40.20;;;;;;5038714;28;20448;-78
2022/01/20 09:44:18;;;;;;;1.77;1.30;;;19.20;40.10;;;;;;5041136;28;20739;-77
2022/01/20 09:46:45;;;;;;;1.57;1.47;;;19.10;40.10;;;;;;5072831;28;20222;-79
2022/01/20 09:49:11;;;;;;;5.83;2.03;;;19.10;40.10;;;;;;5039699;28;20230;-78
2022/01/20 09:51:39;;;;;;;1.47;1.17;;;19.10;40.10;;;;;;5040448;28;21002;-77
2022/01/20 09:54:05;;;;;;;1.30;1.20;;;19.20;40.20;;;;;;5045626;28;20468;-77
2022/01/20 09:56:32;;;;;;;1.20;1.10;;;19.10;40.10;;;;;;5043241;28;20459;-77
2022/01/20 09:58:58;;;;;;;2.20;1.23;;;19.20;40.20;;;;;;5040540;28;20460;-76
2022/01/20 10:01:34;;;;;;;1.73;1.30;;;19.10;40.10;;;;;;5048128;28;20466;-76
2022/01/20 10:04:00;;;;;;;1.43;1.20;;;19.10;40.10;;;;;;5042503;28;20235;-76
2022/01/20 10:06:26;;;;;;;1.20;1.10;;;19.10;40.10;;;;;;5039428;28;20473;-76
2022/01/20 10:09:00;;;;;;;1.23;1.10;;;19.10;40.10;;;;;;5042996;28;20239;-76
2022/01/20 10:11:28;;;;;;;1.30;1.20;;;19.10;40.10;;;;;;5037838;28;20490;-76
2022/01/20 10:13:57;;;;;;;1.33;1.20;;;19.10;40.10;;;;;;5039340;28;20448;-76
2022/01/20 10:16:22;;;;;;;1.30;1.10;;;19.10;40.10;;;;;;5044110;28;20875;-76
2022/01/20 10:18:51;;;;;;;1.23;1.13;;;19.10;40.10;;;;;;5045033;28;20517;-76
2022/01/20 10:21:18;;;;;;;1.30;1.13;;;19.10;40.20;;;;;;5042398;28;20521;-76
2022/01/20 10:23:48;;;;;;;1.10;1.00;;;19.10;40.20;;;;;;5042878;28;20542;-75
2022/01/20 10:26:19;;;;;;;1.23;1.13;;;19.10;40.20;;;;;;5037923;28;20703;-77
2022/01/20 10:28:57;;;;;;;1.37;1.27;;;19.10;40.10;;;;;;5042359;28;20961;-76
2022/01/20 10:31:44;;;;;;;1.40;1.30;;;19.00;40.10;;;;;;5045123;28;20498;-76
2022/01/20 10:34:35;;;;;;;1.97;1.27;;;19.00;40.10;;;;;;5038021;28;20512;-76
2022/01/20 10:37:04;;;;;;;1.20;1.10;;;19.00;40.10;;;;;;5045641;28;20801;-77
2022/01/20 10:39:35;;;;;;;1.20;1.00;;;19.10;40.20;;;;;;5041458;28;20487;-76
2022/01/20 10:42:09;;;;;;;1.40;1.23;;;19.10;40.20;;;;;;5040190;28;20444;-76
2022/01/20 10:44:45;;;;;;;2.40;1.20;;;19.00;40.10;;;;;;5025467;28;20446;-76
2022/01/20 10:47:14;;;;;;;2.33;1.00;;;19.10;40.20;;;;;;5032005;28;20444;-76
2022/01/20 10:49:41;;;;;;;1.20;1.10;;;19.10;40.20;;;;;;5040940;28;20448;-76
2022/01/20 10:52:08;;;;;;;2.07;1.97;;;19.00;40.10;;;;;;5038190;28;20827;-76
2022/01/20 10:54:35;;;;;;;2.80;1.40;;;19.00;40.10;;;;;;5039720;28;20442;-76
2022/01/20 10:57:02;;;;;;;1.23;1.10;;;19.10;40.20;;;;;;5040405;28;20427;-76
2022/01/20 10:59:28;;;;;;;1.50;1.20;;;19.00;40.10;;;;;;5042504;28;20467;-74
2022/01/20 11:02:08;;;;;;;1.53;1.10;;;19.10;40.20;;;;;;5042350;28;20466;-77
2022/01/20 11:04:37;;;;;;;4.63;1.30;;;19.00;40.00;;;;;;5039915;28;20238;-81
2022/01/20 11:07:06;;;;;;;2.13;1.10;;;19.00;40.00;;;;;;5037716;28;20587;-80
2022/01/20 11:09:35;;;;;;;1.17;1.07;;;19.00;40.10;;;;;;5036899;28;20459;-79
2022/01/20 11:12:02;;;;;;;1.20;1.10;;;19.10;40.10;;;;;;5038263;28;20873;-78
2022/01/20 11:14:29;;;;;;;1.67;1.10;;;19.00;40.00;;;;;;5037207;28;20846;-78
2022/01/20 11:16:57;;;;;;;1.33;1.23;;;19.10;40.10;;;;;;5038192;28;20965;-78
2022/01/20 11:19:23;;;;;;;1.30;1.00;;;19.10;40.10;;;;;;5037584;28;20479;-78
2022/01/20 11:21:49;;;;;;;2.13;1.20;;;19.10;40.10;;;;;;5037848;28;20431;-77
2022/01/20 11:24:24;;;;;;;1.80;1.00;;;19.10;40.10;;;;;;5040591;28;20241;-77
2022/01/20 11:26:55;;;;;;;1.30;1.13;;;19.10;40.10;;;;;;5036650;28;20542;-76
2022/01/20 11:29:23;;;;;;;1.40;1.27;;;19.00;40.00;;;;;;5035298;28;20484;-74
2022/01/20 11:31:49;;;;;;;1.33;1.10;;;19.00;40.00;;;;;;5035262;28;20973;-73
2022/01/20 11:34:20;;;;;;;1.13;1.03;;;19.00;40.00;;;;;;5045313;28;20460;-74
2022/01/20 11:36:48;;;;;;;1.97;1.10;;;19.00;40.00;;;;;;5038015;28;20448;-75
2022/01/20 11:39:18;;;;;;;1.10;1.00;;;19.00;40.00;;;;;;5038861;28;20467;-75
2022/01/20 11:41:48;;;;;;;1.00;0.90;;;19.00;40.00;;;;;;5024829;28;20445;-74
2022/01/20 11:44:19;;;;;;;1.97;1.40;;;19.00;39.90;;;;;;5018635;28;20824;-72
2022/01/20 11:46:47;;;;;;;1.60;1.23;;;19.00;40.00;;;;;;5017359;28;20467;-72
2022/01/20 11:49:15;;;;;;;2.00;1.00;;;19.00;40.00;;;;;;5033880;28;20456;-72
2022/01/20 11:51:51;;;;;;;2.10;1.30;;;19.00;40.00;;;;;;5036564;28;20449;-74
2022/01/20 11:54:34;;;;;;;1.43;1.10;;;19.00;40.00;;;;;;5040123;28;20458;-74
2022/01/20 11:57:12;;;;;;;1.07;0.97;;;19.00;40.00;;;;;;5042089;28;20530;-74
2022/01/20 11:59:41;;;;;;;1.10;1.00;;;19.00;40.10;;;;;;5038903;28;20512;-73
2022/01/20 12:02:08;;;;;;;1.30;1.10;;;19.00;40.10;;;;;;5037488;28;20961;-73
2022/01/20 12:04:36;;;;;;;1.33;1.00;;;19.00;40.10;;;;;;5041048;28;20456;-72
2022/01/20 12:07:04;;;;;;;1.20;1.00;;;19.00;40.10;;;;;;5038823;28;20448;-72
2022/01/20 12:09:35;;;;;;;1.33;1.23;;;19.00;40.10;;;;;;5041410;28;20521;-71
2022/01/20 12:12:06;;;;;;;1.17;1.00;;;18.90;40.00;;;;;;5041648;28;20491;-71
2022/01/20 12:14:38;;;;;;;2.20;0.83;;;19.00;40.10;;;;;;5035626;28;20502;-71
2022/01/20 12:17:14;;;;;;;1.30;1.20;;;18.90;40.00;;;;;;5037932;28;20508;-71
2022/01/20 12:19:41;;;;;;;1.20;1.00;;;19.00;40.10;;;;;;5040381;28;20516;-71
2022/01/20 12:22:07;;;;;;;1.17;1.07;;;18.90;40.00;;;;;;5037869;28;20960;-71
2022/01/20 12:24:35;;;;;;;1.30;1.20;;;19.00;40.10;;;;;;5039851;28;20468;-70
2022/01/20 12:27:01;;;;;;;1.40;1.23;;;18.90;40.00;;;;;;5038506;28;20311;-70
2022/01/20 12:29:35;;;;;;;1.00;0.90;;;19.00;40.10;;;;;;5035283;28;20518;-70
2022/01/20 12:32:00;;;;;;;1.40;1.30;;;18.90;40.00;;;;;;5039623;28;20292;-70
2022/01/20 12:34:26;;;;;;;1.00;0.90;;;19.00;40.10;;;;;;5038983;28;26090;-70
2022/01/20 12:36:53;;;;;;;1.23;0.97;;;19.00;40.10;;;;;;5044530;28;20639;-70
2022/01/20 12:39:28;;;;;;;1.10;1.00;;;18.90;40.00;;;;;;5043603;28;20230;-70
2022/01/20 12:41:59;;;;;;;1.10;1.00;;;18.90;40.00;;;;;;5044082;28;20448;-70
2022/01/20 12:44:49;;;;;;;1.00;0.80;;;19.00;40.10;;;;;;5039038;28;20816;-70
2022/01/20 12:47:17;;;;;;;1.10;1.00;;;19.00;40.10;;;;;;5046410;28;20440;-70
2022/01/20 12:49:43;;;;;;;1.10;1.00;;;18.90;40.00;;;;;;5039391;28;20762;-69
2022/01/20 12:52:10;;;;;;;0.90;0.80;;;18.90;40.00;;;;;;5038491;28;20451;-70
2022/01/20 12:54:36;;;;;;;1.23;1.00;;;18.90;40.10;;;;;;5045695;28;20455;-69
2022/01/20 12:57:08;;;;;;;1.10;1.00;;;18.90;40.10;;;;;;5045907;28;20811;-69
2022/01/20 12:59:41;;;;;;;1.30;1.10;;;18.90;40.00;;;;;;5044788;28;20322;-69
2022/01/20 13:02:12;;;;;;;1.10;0.83;;;18.90;40.10;;;;;;5041236;28;20471;-70
2022/01/20 13:04:39;;;;;;;1.20;1.00;;;18.90;40.00;;;;;;5046071;28;20505;-70
2022/01/20 13:07:09;;;;;;;1.37;1.27;;;18.90;40.00;;;;;;5038692;28;20490;-70
2022/01/20 13:09:50;;;;;;;1.57;1.03;;;18.90;40.00;;;;;;5044990;28;20499;-73
2022/01/20 13:12:18;;;;;;;1.10;1.00;;;18.90;40.00;;;;;;5043114;28;20455;-70
2022/01/20 13:14:49;;;;;;;1.30;1.07;;;18.90;40.10;;;;;;5036923;28;20456;-70
2022/01/20 13:17:30;;;;;;;1.37;1.03;;;18.90;40.10;;;;;;5041088;28;20803;-70
2022/01/20 13:19:58;;;;;;;1.13;0.90;;;18.90;40.00;;;;;;5044052;28;20548;-70
2022/01/20 13:22:29;;;;;;;1.47;1.00;;;19.00;40.20;;;;;;5040116;28;20451;-70
2022/01/20 13:25:07;;;;;;;1.03;0.93;;;18.90;40.10;;;;;;5041295;28;20438;-70
2022/01/20 13:27:33;;;;;;;1.03;0.90;;;18.90;40.10;;;;;;5040533;28;20981;-70
2022/01/20 13:29:59;;;;;;;1.77;0.90;;;19.00;40.20;;;;;;5042307;28;20463;-70
2022/01/20 13:32:25;;;;;;;1.17;1.07;;;18.90;40.00;;;;;;5046967;28;20234;-70
2022/01/20 13:34:55;;;;;;;1.00;0.90;;;18.90;40.10;;;;;;5042759;28;20210;-70
2022/01/20 13:37:21;;;;;;;1.30;1.10;;;18.90;40.80;;;;;;5041607;28;20215;-70
2022/01/20 13:39:49;;;;;;;1.00;0.90;;;18.90;40.10;;;;;;5040350;28;20517;-70
2022/01/20 13:42:46;;;;;;;1.33;1.20;;;18.90;40.10;;;;;;5040459;28;20469;-70
2022/01/20 13:45:15;;;;;;;1.20;1.00;;;18.90;40.10;;;;;;5033886;28;20463;-70
2022/01/20 13:47:58;;;;;;;1.60;0.97;;;18.90;40.10;;;;;;5041631;28;20461;-70
2022/01/20 13:50:38;;;;;;;1.00;0.90;;;18.90;40.10;;;;;;5043366;28;20979;-70
2022/01/20 13:53:13;;;;;;;5.70;1.10;;;18.90;40.10;;;;;;5040895;28;20439;-75